Winona, Texas
Current Conditions -  °F | °C
As of 2:53 PM on Saturday 22 Nov 2014 (Local Time) from KTYR Reporting Station
Light Rain Light Rain  
Wind Chill: 65°   Ceiling: 11000
Heat Index: 65°   Visibility: 8mi
Dew Point: 59°   Wind: 12mph
Humidity: 81%   Direction: 100°E
Pressure: 29.87"   Gusts: NA
Location:  32.49°N, 95.17°W
Report Text: KTYR 222053Z 10010KT 8SM -RA FEW019 OVC110 18/15 A2987 RMK AO2 RAB15 SLP111 P0001 60001 T01830150 56053
Loading
Personal Weather Stations






























Interactive Weather Map New forecast layout! Learn more

10-Day Weather Forecast

Advertisements
Track Severe Weather on mobile